createdAt,value
2022-09-06T00:03:34.135Z,19.08
2022-09-06T00:12:33.736Z,18.99
2022-09-06T00:27:31.871Z,19.11
2022-09-06T00:44:16.334Z,19.50
2022-09-06T00:45:16.257Z,19.43
2022-09-06T00:46:16.272Z,19.45
2022-09-06T00:47:16.106Z,19.46
2022-09-06T00:48:16.032Z,19.48
2022-09-06T00:49:15.957Z,19.43
2022-09-06T00:50:15.923Z,19.40
2022-09-06T00:51:15.807Z,19.43
2022-09-06T00:52:15.731Z,19.39
2022-09-06T00:53:15.693Z,19.42
2022-09-06T00:54:15.582Z,19.36
2022-09-06T00:56:15.433Z,19.31
2022-09-06T00:57:15.360Z,19.25
2022-09-06T00:58:15.283Z,19.23
2022-09-06T00:59:15.208Z,19.24
2022-09-06T01:00:15.132Z,19.17
2022-09-06T01:01:15.406Z,19.15
2022-09-06T01:02:15.315Z,19.13
2022-09-06T01:03:14.944Z,19.20
2022-09-06T01:04:15.034Z,19.21
2022-09-06T01:05:14.797Z,19.15
2022-09-06T01:06:14.722Z,19.13
2022-09-06T01:07:14.611Z,19.13
2022-09-06T01:08:14.770Z,19.11
2022-09-06T01:09:14.462Z,19.13
2022-09-06T01:10:14.420Z,19.11
2022-09-06T01:11:14.312Z,19.02
2022-09-06T01:12:14.271Z,19.08
2022-09-06T01:13:14.164Z,18.97
2022-09-06T01:14:14.127Z,18.95
2022-09-06T01:15:14.051Z,18.98
2022-09-06T01:16:14.153Z,18.95
2022-09-06T01:17:13.868Z,18.95
2022-09-06T01:18:13.791Z,18.95
2022-09-06T01:19:13.752Z,18.92
2022-09-06T01:20:13.640Z,18.90
2022-09-06T01:21:13.565Z,18.92
2022-09-06T01:22:13.693Z,18.99
2022-09-06T01:24:13.381Z,18.98
2022-09-06T01:26:13.191Z,18.89
2022-09-06T01:27:13.119Z,18.94
2022-09-06T01:28:13.079Z,18.84
2022-09-06T01:29:12.969Z,18.89
2022-09-06T01:31:12.965Z,18.82
2022-09-06T01:32:12.782Z,18.84
2022-09-06T01:33:12.671Z,18.79
2022-09-06T01:35:12.757Z,18.80
2022-09-06T01:36:12.444Z,18.73
2022-09-06T01:37:13.014Z,18.68
2022-09-06T01:38:12.936Z,18.76
2022-09-06T01:39:12.259Z,18.69
2022-09-06T01:40:12.212Z,18.67
2022-09-06T01:41:12.474Z,18.69
2022-09-06T01:42:12.635Z,18.69
2022-09-06T01:44:12.032Z,18.68
2022-09-06T01:45:12.009Z,18.69
2022-09-06T01:46:11.848Z,18.74
2022-09-06T01:47:11.710Z,18.76
2022-09-06T01:48:11.782Z,18.74
2022-09-06T01:51:11.357Z,18.98
2022-09-06T01:52:11.285Z,18.90
2022-09-06T01:54:11.303Z,18.92
2022-09-06T01:55:11.060Z,18.99
2022-09-06T01:56:10.981Z,18.95
2022-09-06T01:57:11.314Z,19.01
2022-09-06T01:58:10.833Z,19.06
2022-09-06T01:59:10.760Z,19.15
2022-09-06T02:00:10.649Z,19.27
2022-09-06T02:01:10.816Z,19.25
2022-09-06T02:04:11.097Z,19.79
2022-09-06T02:06:10.239Z,19.43
2022-09-06T02:08:10.093Z,19.36
2022-09-06T02:09:10.012Z,19.36
2022-09-06T02:10:10.248Z,19.38
2022-09-06T02:11:09.878Z,19.39
2022-09-06T02:12:09.801Z,19.28
2022-09-06T02:13:09.982Z,19.31
2022-09-06T02:14:09.846Z,19.28
2022-09-06T02:16:09.487Z,19.40
2022-09-06T02:17:09.482Z,19.39
2022-09-06T02:18:09.950Z,19.94
2022-09-06T02:20:09.392Z,20.18
2022-09-06T02:22:09.038Z,20.20
2022-09-06T02:23:08.973Z,20.27
2022-09-06T02:24:08.890Z,20.23
2022-09-06T02:25:09.424Z,20.23
2022-09-06T02:26:08.741Z,20.30
2022-09-06T02:27:08.667Z,20.24
2022-09-06T02:29:09.121Z,20.38
2022-09-06T02:30:08.647Z,20.46
2022-09-06T02:31:08.634Z,20.49
2022-09-06T02:32:08.295Z,20.59
2022-09-06T02:33:08.421Z,20.61
2022-09-06T02:34:08.148Z,20.61
2022-09-06T02:35:08.069Z,20.56
2022-09-06T02:36:07.998Z,20.66
2022-09-06T02:37:08.129Z,20.72
2022-09-06T02:38:08.050Z,20.72
2022-09-06T02:39:08.078Z,20.79
2022-09-06T02:40:07.989Z,20.75
2022-09-06T02:41:07.588Z,20.74
2022-09-06T02:42:07.515Z,20.65
2022-09-06T02:44:07.363Z,20.71
2022-09-06T02:45:07.299Z,20.74
2022-09-06T02:46:07.303Z,20.69
2022-09-06T02:47:07.145Z,20.65
2022-09-06T02:48:07.068Z,20.64
2022-09-06T02:49:06.995Z,20.61
2022-09-06T02:50:06.921Z,20.47
2022-09-06T02:51:06.852Z,20.51
2022-09-06T02:52:06.771Z,20.54
2022-09-06T02:53:06.699Z,20.54
2022-09-06T02:54:06.624Z,20.54
2022-09-06T02:55:06.552Z,20.42
2022-09-06T02:56:06.475Z,20.33
2022-09-06T02:57:06.401Z,20.30
2022-09-06T02:58:06.327Z,20.34
2022-09-06T02:59:06.269Z,20.50
2022-09-06T03:00:06.180Z,20.46
2022-09-06T03:01:06.171Z,20.50
2022-09-06T03:02:06.061Z,20.40
2022-09-06T03:03:05.993Z,20.43
2022-09-06T03:04:05.880Z,20.42
2022-09-06T03:05:05.809Z,20.42
2022-09-06T03:06:05.734Z,20.43
2022-09-06T03:07:05.659Z,20.37
2022-09-06T03:08:05.587Z,20.33
2022-09-06T03:09:05.512Z,20.35
2022-09-06T03:10:05.441Z,20.27
2022-09-06T03:11:05.366Z,20.33
2022-09-06T03:12:05.289Z,20.33
2022-09-06T03:13:05.216Z,20.31
2022-09-06T03:14:05.140Z,20.28
2022-09-06T03:15:05.068Z,20.34
2022-09-06T03:16:04.995Z,20.28
2022-09-06T03:17:04.993Z,20.46
2022-09-06T03:18:04.844Z,20.46
2022-09-06T03:19:04.774Z,20.33
2022-09-06T03:20:04.699Z,20.33
2022-09-06T03:21:04.625Z,20.26
2022-09-06T03:22:04.551Z,20.15
2022-09-06T03:23:04.477Z,20.09
2022-09-06T03:24:04.401Z,20.15
2022-09-06T03:25:04.329Z,20.10
2022-09-06T03:26:04.255Z,20.00
2022-09-06T03:27:04.181Z,20.03
2022-09-06T03:28:04.109Z,20.08
2022-09-06T03:29:04.032Z,20.09
2022-09-06T03:30:04.058Z,20.05
2022-09-06T03:31:04.147Z,20.03
2022-09-06T03:32:03.808Z,19.97
2022-09-06T03:33:03.771Z,20.00
2022-09-06T03:34:04.698Z,20.03
2022-09-06T03:35:03.588Z,19.90
2022-09-06T03:36:03.512Z,19.78
2022-09-06T03:37:03.441Z,19.80
2022-09-06T03:38:03.465Z,19.75
2022-09-06T03:39:03.293Z,19.69
2022-09-06T03:40:03.379Z,19.65
2022-09-06T03:41:03.145Z,19.58
2022-09-06T03:42:03.076Z,19.68
2022-09-06T03:43:02.997Z,19.69
2022-09-06T03:44:02.921Z,19.69
2022-09-06T03:45:02.847Z,19.72
2022-09-06T03:46:02.912Z,19.72
2022-09-06T03:47:02.732Z,19.58
2022-09-06T03:48:02.623Z,19.46
2022-09-06T03:49:02.549Z,19.42
2022-09-06T03:50:02.624Z,19.46
2022-09-06T03:51:02.441Z,19.46
2022-09-06T03:52:02.327Z,19.42
2022-09-06T03:53:02.252Z,19.36
2022-09-06T03:54:02.177Z,19.38
2022-09-06T03:55:02.105Z,19.32
2022-09-06T03:56:02.032Z,19.25
2022-09-06T03:57:01.954Z,19.21
2022-09-06T03:58:01.878Z,19.11
2022-09-06T03:59:01.809Z,19.06
2022-09-06T04:00:01.730Z,18.95
2022-09-06T04:01:01.844Z,18.89
2022-09-06T04:02:01.676Z,18.94
2022-09-06T04:03:01.957Z,18.83
2022-09-06T04:04:01.481Z,18.92
2022-09-06T04:05:01.359Z,18.89
2022-09-06T04:08:01.132Z,18.92
2022-09-06T04:09:01.060Z,18.95
2022-09-06T04:10:01.017Z,18.90
2022-09-06T04:11:00.910Z,18.95
2022-09-06T04:12:00.833Z,18.94
2022-09-06T04:13:00.770Z,18.90
2022-09-06T04:14:00.888Z,18.87
2022-09-06T04:15:00.645Z,18.90
2022-09-06T04:16:00.568Z,18.82
2022-09-06T04:17:00.572Z,18.76
2022-09-06T04:18:00.416Z,18.82
2022-09-06T04:19:00.346Z,18.80
2022-09-06T04:20:00.280Z,18.79
2022-09-06T04:21:00.198Z,18.77
2022-09-06T04:22:00.087Z,18.82
2022-09-06T04:23:00.052Z,18.79
2022-09-06T04:24:00.136Z,18.82
2022-09-06T04:24:59.860Z,18.87
2022-09-06T04:25:59.817Z,18.87
2022-09-06T04:26:59.747Z,18.90
2022-09-06T04:27:59.668Z,18.94
2022-09-06T04:28:59.595Z,18.92
2022-09-06T04:29:59.718Z,18.95
2022-09-06T04:31:03.537Z,18.86
2022-09-06T04:31:59.406Z,18.90
2022-09-06T04:33:59.217Z,18.95
2022-09-06T04:34:59.108Z,18.95
2022-09-06T04:35:59.031Z,18.95
2022-09-06T04:36:58.995Z,18.98
2022-09-06T04:37:58.881Z,18.94
2022-09-06T04:38:58.855Z,18.92
2022-09-06T04:39:58.763Z,18.94
2022-09-06T04:40:58.655Z,18.92
2022-09-06T04:41:58.781Z,18.95
2022-09-06T04:42:58.506Z,18.83
2022-09-06T04:43:58.431Z,18.79
2022-09-06T04:44:58.355Z,18.82
2022-09-06T04:45:59.346Z,18.79
2022-09-06T04:46:58.205Z,18.74
2022-09-06T04:47:58.129Z,18.68
2022-09-06T04:48:58.071Z,18.62
2022-09-06T04:49:57.980Z,18.50
2022-09-06T04:50:57.906Z,18.58
2022-09-06T04:51:57.829Z,18.62
2022-09-06T04:52:57.753Z,18.65
2022-09-06T04:53:57.682Z,18.62
2022-09-06T04:54:57.605Z,18.57
2022-09-06T04:55:57.530Z,18.49
2022-09-06T04:56:57.454Z,18.55
2022-09-06T04:57:57.378Z,18.49
2022-09-06T04:58:57.304Z,18.53
2022-09-06T04:59:57.229Z,18.49
2022-09-06T05:00:57.212Z,18.53
2022-09-06T05:01:57.214Z,18.57
2022-09-06T05:02:57.003Z,18.52
2022-09-06T05:03:57.346Z,18.46
2022-09-06T05:04:57.005Z,18.53
2022-09-06T05:05:56.779Z,18.44
2022-09-06T05:06:56.737Z,18.40
2022-09-06T05:07:56.627Z,18.43
2022-09-06T05:08:56.551Z,18.39
2022-09-06T05:09:56.478Z,18.28
2022-09-06T05:10:56.401Z,18.21
2022-09-06T05:11:56.327Z,18.24
2022-09-06T05:12:56.255Z,18.22
2022-09-06T05:13:56.175Z,18.24
2022-09-06T05:14:56.107Z,18.13
2022-09-06T05:15:56.027Z,18.14
2022-09-06T05:16:56.068Z,18.07
2022-09-06T05:17:55.877Z,18.00
2022-09-06T05:18:55.807Z,18.00
2022-09-06T05:19:55.726Z,17.94
2022-09-06T05:20:55.651Z,17.95
2022-09-06T05:21:55.826Z,17.95
2022-09-06T05:22:55.500Z,17.95
2022-09-06T05:23:58.514Z,17.91
2022-09-06T05:24:55.351Z,17.88
2022-09-06T05:25:55.277Z,17.88
2022-09-06T05:26:55.200Z,17.84
2022-09-06T05:27:55.123Z,17.71
2022-09-06T05:28:55.091Z,17.73
2022-09-06T05:29:54.972Z,17.67
2022-09-06T05:30:54.897Z,17.67
2022-09-06T05:31:54.918Z,17.63
2022-09-06T05:32:54.749Z,17.60
2022-09-06T05:33:54.671Z,17.60
2022-09-06T05:34:54.595Z,17.67
2022-09-06T05:35:54.556Z,17.73
2022-09-06T05:41:30.147Z,17.66
2022-09-06T05:42:29.869Z,17.57
2022-09-06T05:43:29.794Z,17.58
2022-09-06T05:44:29.715Z,17.70
2022-09-06T05:45:29.682Z,17.69
2022-09-06T05:46:29.564Z,17.64
2022-09-06T05:47:29.494Z,17.55
2022-09-06T05:48:33.343Z,17.66
2022-09-06T05:49:29.339Z,17.50
2022-09-06T05:50:29.267Z,17.60
2022-09-06T05:51:29.188Z,17.63
2022-09-06T05:52:29.112Z,17.58
2022-09-06T05:53:29.037Z,17.67
2022-09-06T05:54:28.959Z,17.66
2022-09-06T05:55:28.888Z,17.67
2022-09-06T05:56:28.809Z,17.67
2022-09-06T05:57:28.739Z,17.71
2022-09-06T05:58:28.812Z,17.71
2022-09-06T05:59:28.584Z,17.70
2022-09-06T06:00:28.570Z,17.67
2022-09-06T06:01:28.499Z,17.74
2022-09-06T06:02:28.414Z,17.71
2022-09-06T06:04:28.342Z,17.84
2022-09-06T06:06:28.259Z,17.91
2022-09-06T06:07:27.978Z,17.95
2022-09-06T06:08:28.025Z,17.98
2022-09-06T06:09:28.066Z,17.94
2022-09-06T06:10:27.752Z,17.96
2022-09-06T06:11:27.694Z,18.02
2022-09-06T06:13:27.562Z,18.10
2022-09-06T06:14:27.585Z,18.13
2022-09-06T06:15:28.122Z,18.21
2022-09-06T06:16:27.456Z,18.22
2022-09-06T06:17:27.459Z,18.21
2022-09-06T06:18:27.280Z,18.34
2022-09-06T06:19:27.116Z,18.40
2022-09-06T06:20:28.249Z,18.43
2022-09-06T06:21:26.962Z,18.47
2022-09-06T06:22:26.888Z,18.50
2022-09-06T06:23:26.777Z,18.52
2022-09-06T06:24:26.739Z,18.58
2022-09-06T06:25:26.660Z,18.61
2022-09-06T06:26:26.590Z,18.69
2022-09-06T06:27:26.508Z,18.67
2022-09-06T06:28:26.517Z,18.86
2022-09-06T06:29:26.326Z,18.80
2022-09-06T06:30:26.286Z,18.92
2022-09-06T06:31:26.274Z,18.95
2022-09-06T06:32:26.103Z,18.84
2022-09-06T06:33:26.265Z,18.86
2022-09-06T06:34:25.993Z,18.97
2022-09-06T06:35:26.128Z,18.92
2022-09-06T06:36:26.602Z,18.94
2022-09-06T06:37:26.475Z,19.01
2022-09-06T06:40:25.541Z,19.24
2022-09-06T06:41:25.673Z,19.24
2022-09-06T06:43:26.445Z,19.35
2022-09-06T06:46:25.304Z,19.53
2022-09-06T06:49:25.186Z,19.61
2022-09-06T06:50:25.202Z,19.69
2022-09-06T06:51:24.693Z,19.69
2022-09-06T06:52:24.955Z,19.65
2022-09-06T06:53:24.582Z,19.75
2022-09-06T06:54:24.503Z,19.72
2022-09-06T06:55:24.834Z,19.72
2022-09-06T06:56:24.362Z,19.73
2022-09-06T06:58:25.219Z,19.82
2022-09-06T06:59:24.741Z,19.73
2022-09-06T07:02:23.977Z,19.93
2022-09-06T07:03:23.839Z,19.94
2022-09-06T07:04:23.762Z,20.03
2022-09-06T07:07:30.892Z,20.20
2022-09-06T07:09:23.614Z,20.23
2022-09-06T07:10:38.802Z,20.34
2022-09-06T07:11:24.844Z,20.28
2022-09-06T07:12:23.136Z,20.46
2022-09-06T07:13:23.244Z,20.54
2022-09-06T07:15:30.493Z,20.66
2022-09-06T07:16:30.474Z,20.74
2022-09-06T07:17:30.346Z,20.79
2022-09-06T07:18:30.272Z,20.72
2022-09-06T07:20:30.241Z,20.86
2022-09-06T07:21:37.650Z,20.84
2022-09-06T07:22:30.044Z,20.83
2022-09-06T07:24:29.835Z,20.94
2022-09-06T07:25:29.758Z,21.08
2022-09-06T07:26:29.986Z,21.17
2022-09-06T07:28:29.541Z,21.26
2022-09-06T07:29:29.466Z,21.36
2022-09-06T07:30:29.392Z,21.48
2022-09-06T07:32:29.248Z,21.54
2022-09-06T07:33:29.333Z,21.60
2022-09-06T07:34:29.100Z,21.51
2022-09-06T07:35:29.029Z,21.61
2022-09-06T07:36:28.956Z,21.61
2022-09-06T07:37:28.884Z,21.64
2022-09-06T07:38:28.847Z,21.64
2022-09-06T07:39:28.892Z,21.66
2022-09-06T07:40:28.666Z,21.72
2022-09-06T07:41:28.594Z,21.72
2022-09-06T07:43:31.169Z,21.81
2022-09-06T07:44:28.408Z,21.94
2022-09-06T07:45:28.337Z,21.94
2022-09-06T07:46:28.654Z,21.98
2022-09-06T07:48:28.223Z,22.24
2022-09-06T07:49:31.651Z,22.30
2022-09-06T07:51:27.869Z,22.49
2022-09-06T07:53:31.105Z,22.52
2022-09-06T07:54:31.374Z,22.63
2022-09-06T07:55:27.580Z,22.62
2022-09-06T07:56:27.509Z,22.69
2022-09-06T07:57:27.435Z,22.67
2022-09-06T07:58:27.360Z,22.63
2022-09-06T07:59:27.292Z,22.63
2022-09-06T08:01:34.731Z,22.65
2022-09-06T08:02:34.715Z,22.67
2022-09-06T08:03:34.728Z,22.72
2022-09-06T08:04:34.707Z,22.78
2022-09-06T08:09:34.180Z,22.99
2022-09-06T08:10:34.510Z,23.05
2022-09-06T08:14:04.658Z,23.29
2022-09-06T08:15:04.630Z,23.40
2022-09-06T08:22:04.134Z,23.72
2022-09-06T08:34:05.486Z,24.27
2022-09-06T08:35:05.448Z,24.20
2022-09-06T08:36:05.578Z,24.30
2022-09-06T08:38:05.836Z,24.23
2022-09-06T08:49:23.666Z,24.54
2022-09-06T09:10:42.290Z,24.79
2022-09-06T09:11:09.209Z,24.83
2022-09-06T09:12:08.934Z,24.86
2022-09-06T09:16:08.789Z,25.04
2022-09-06T09:17:08.615Z,25.10
2022-09-06T09:19:08.434Z,25.31
2022-09-06T09:20:08.499Z,25.25
2022-09-06T09:21:08.538Z,25.25
2022-09-06T09:22:08.221Z,25.30
2022-09-06T09:23:08.150Z,25.31
2022-09-06T09:24:08.128Z,25.41
2022-09-06T09:25:08.006Z,25.34
2022-09-06T09:26:07.935Z,25.47
2022-09-06T09:27:07.860Z,25.41
2022-09-06T09:28:07.792Z,25.47
2022-09-06T09:29:07.722Z,25.56
2022-09-06T09:31:07.672Z,25.59
2022-09-06T09:32:07.620Z,25.59
2022-09-06T09:33:07.433Z,25.57
2022-09-06T09:34:07.561Z,25.60
2022-09-06T09:35:07.493Z,25.68
2022-09-06T09:36:07.273Z,25.64
2022-09-06T09:38:11.038Z,25.59
2022-09-06T09:39:07.005Z,25.70
2022-09-06T09:40:07.017Z,25.70
2022-09-06T09:41:06.874Z,25.84
2022-09-06T09:42:06.791Z,25.89
2022-09-06T09:43:06.719Z,26.01
2022-09-06T09:44:06.650Z,26.08
2022-09-06T09:45:06.576Z,26.16
2022-09-06T09:46:06.564Z,26.11
2022-09-06T09:47:06.435Z,26.09
2022-09-06T09:48:06.364Z,26.04
2022-09-06T09:49:06.292Z,26.09
2022-09-06T09:50:06.220Z,26.23
2022-09-06T09:51:06.149Z,26.23
2022-09-06T09:52:06.079Z,26.25
2022-09-06T09:53:06.007Z,26.20
2022-09-06T09:54:05.943Z,26.27
2022-09-06T09:55:05.868Z,26.09
2022-09-06T09:56:05.800Z,26.12
2022-09-06T09:57:08.993Z,26.08
2022-09-06T09:58:05.655Z,26.09
2022-09-06T09:59:05.581Z,26.11
2022-09-06T10:00:05.515Z,26.24
2022-09-06T10:03:05.364Z,26.46
2022-09-06T10:05:05.193Z,26.62
2022-09-06T10:07:08.351Z,26.69
2022-09-06T10:08:04.976Z,26.46
2022-09-06T10:09:04.907Z,26.57
2022-09-06T10:11:04.968Z,26.52
2022-09-06T10:12:05.200Z,26.65
2022-09-06T10:13:04.623Z,26.75
2022-09-06T10:14:04.553Z,26.71
2022-09-06T10:15:06.943Z,26.82
2022-09-06T10:16:04.643Z,26.68
2022-09-06T10:17:04.304Z,26.60
2022-09-06T10:18:04.231Z,26.49
2022-09-06T10:19:04.162Z,26.52
2022-09-06T10:20:04.090Z,26.53
2022-09-06T10:21:04.021Z,26.60
2022-09-06T10:22:03.948Z,26.67
2022-09-06T10:23:03.878Z,26.87
2022-09-06T10:25:03.757Z,26.76
2022-09-06T10:26:03.663Z,26.75
2022-09-06T10:27:06.213Z,26.82
2022-09-06T10:28:11.608Z,26.89
2022-09-06T10:29:03.453Z,27.07
2022-09-06T10:30:03.379Z,27.04
2022-09-06T10:31:03.374Z,26.99
2022-09-06T10:32:03.239Z,26.89
2022-09-06T10:37:02.919Z,26.80
2022-09-06T10:38:02.816Z,26.99
2022-09-06T10:39:04.082Z,27.07
2022-09-06T10:41:25.539Z,27.32
2022-09-06T10:45:24.946Z,27.70
2022-09-06T10:53:21.944Z,27.70
2022-09-06T10:54:22.000Z,27.70
2022-09-06T10:55:22.013Z,27.82
2022-09-06T10:56:21.949Z,27.80
2022-09-06T10:58:21.764Z,27.87
2022-09-06T10:59:37.845Z,28.01
2022-09-06T11:02:21.398Z,28.25
2022-09-06T11:06:22.487Z,28.56
2022-09-06T11:07:20.973Z,28.53
2022-09-06T11:15:20.377Z,28.80
2022-09-06T11:16:20.375Z,28.76
2022-09-06T11:17:20.985Z,28.76
2022-09-06T11:18:20.173Z,28.59
2022-09-06T11:21:19.962Z,28.90
2022-09-06T11:22:19.894Z,28.94
2022-09-06T11:23:19.826Z,29.21
2022-09-06T11:24:19.754Z,29.21
2022-09-06T11:25:19.688Z,29.28
2022-09-06T11:26:19.616Z,29.23
2022-09-06T11:27:19.546Z,29.18
2022-09-06T11:28:19.476Z,29.21
2022-09-06T11:29:19.410Z,29.25
2022-09-06T11:30:19.344Z,29.11
2022-09-06T11:32:19.200Z,29.36
2022-09-06T11:33:19.132Z,29.37
2022-09-06T11:34:19.062Z,29.55
2022-09-06T11:35:18.996Z,29.92
2022-09-06T11:36:18.926Z,30.19
2022-09-06T11:37:18.858Z,30.27
2022-09-06T11:38:18.822Z,30.49
2022-09-06T11:39:18.898Z,30.83
2022-09-06T11:41:51.182Z,31.05
2022-09-06T11:42:51.150Z,30.93
2022-09-06T11:43:51.082Z,30.71
2022-09-06T11:45:50.916Z,31.04
2022-09-06T11:46:50.940Z,31.24
2022-09-06T11:49:50.677Z,31.95
2022-09-06T11:50:50.926Z,32.39
2022-09-06T11:53:50.386Z,33.55
2022-09-06T11:54:50.324Z,33.86
2022-09-06T11:55:50.255Z,34.10
2022-09-06T11:56:50.194Z,34.04
2022-09-06T11:57:50.125Z,34.62
2022-09-06T11:58:50.074Z,35.53
2022-09-06T11:59:50.002Z,35.91
2022-09-06T12:00:49.940Z,35.14
2022-09-06T12:01:49.876Z,34.42
2022-09-06T12:04:06.760Z,33.52
2022-09-06T12:04:49.893Z,33.86
2022-09-06T12:07:49.512Z,35.63
2022-09-06T12:08:49.454Z,36.30
2022-09-06T12:10:32.635Z,35.43
2022-09-06T12:11:31.854Z,35.02
2022-09-06T12:12:32.110Z,34.97
2022-09-06T12:17:44.631Z,34.79
2022-09-06T12:22:58.698Z,34.92
2022-09-06T12:23:58.401Z,35.07
2022-09-06T12:25:59.690Z,35.43
2022-09-06T12:26:56.141Z,35.80
2022-09-06T12:27:55.740Z,36.09
2022-09-06T12:30:08.770Z,36.48
2022-09-06T12:31:56.220Z,34.79
2022-09-06T12:33:38.659Z,34.30
2022-09-06T12:34:38.600Z,33.37
2022-09-06T12:37:11.896Z,33.73
2022-09-06T12:37:38.426Z,34.30
2022-09-06T12:38:38.369Z,34.48
2022-09-06T12:39:38.776Z,34.77
2022-09-06T12:40:38.254Z,35.47
2022-09-06T12:41:42.943Z,36.06
2022-09-06T12:42:38.142Z,35.90
2022-09-06T12:43:38.083Z,35.94
2022-09-06T12:44:38.025Z,36.13
2022-09-06T12:45:37.969Z,36.34
2022-09-06T12:46:37.990Z,36.20
2022-09-06T12:47:37.852Z,35.94
2022-09-06T12:48:37.798Z,35.94
2022-09-06T12:49:37.741Z,35.72
2022-09-06T12:50:37.887Z,35.53
2022-09-06T12:51:37.626Z,35.94
2022-09-06T12:52:37.571Z,36.48
2022-09-06T12:53:37.515Z,34.99
2022-09-06T12:54:37.458Z,34.86
2022-09-06T12:55:37.402Z,35.14
2022-09-06T12:56:37.343Z,35.29
2022-09-06T12:57:37.337Z,35.77
2022-09-06T12:58:37.251Z,35.77
2022-09-06T12:59:37.176Z,35.69
2022-09-06T13:00:37.224Z,36.02
2022-09-06T13:01:37.283Z,36.54
2022-09-06T13:02:37.170Z,36.96
2022-09-06T13:03:36.948Z,37.13
2022-09-06T13:04:36.891Z,37.35
2022-09-06T13:28:40.883Z,37.64
2022-09-06T13:29:40.826Z,36.94
2022-09-06T13:30:40.773Z,36.11
2022-09-06T13:31:40.779Z,34.64
2022-09-06T13:33:40.605Z,35.09
2022-09-06T13:34:40.549Z,35.87
2022-09-06T13:35:40.493Z,36.06
2022-09-06T13:36:40.434Z,36.34
2022-09-06T13:37:40.380Z,36.61
2022-09-06T13:38:40.322Z,36.96
2022-09-06T13:39:40.372Z,37.44
2022-09-06T13:41:06.476Z,37.35
2022-09-06T13:41:40.156Z,36.88
2022-09-06T13:42:40.100Z,36.66
2022-09-06T13:43:40.042Z,36.48
2022-09-06T13:44:39.985Z,36.82
2022-09-06T13:45:39.931Z,36.67
2022-09-06T13:46:39.970Z,36.14
2022-09-06T13:47:39.819Z,35.92
2022-09-06T13:48:40.298Z,36.02
2022-09-06T13:49:39.707Z,36.33
2022-09-06T13:50:39.654Z,36.57
2022-09-06T13:51:39.645Z,36.32
2022-09-06T13:52:39.540Z,35.82
2022-09-06T13:53:39.488Z,35.98
2022-09-06T13:54:39.428Z,36.00
2022-09-06T13:55:39.373Z,35.88
2022-09-06T13:56:39.326Z,36.11
2022-09-06T13:57:39.258Z,36.00
2022-09-06T13:58:39.203Z,35.98
2022-09-06T13:59:39.147Z,36.34
2022-09-06T14:00:39.091Z,36.30
2022-09-06T14:01:39.099Z,35.69
2022-09-06T14:02:39.010Z,35.10
2022-09-06T14:03:38.920Z,35.35
2022-09-06T14:04:38.862Z,35.75
2022-09-06T14:05:38.809Z,35.97
2022-09-06T14:06:38.750Z,36.27
2022-09-06T14:07:38.693Z,37.07
2022-09-06T14:09:05.413Z,37.16
2022-09-06T14:09:38.582Z,37.44
2022-09-06T14:10:38.526Z,37.31
2022-09-06T14:11:38.469Z,36.49
2022-09-06T14:12:38.413Z,36.69
2022-09-06T14:13:38.357Z,36.86
2022-09-06T14:14:38.301Z,37.19
2022-09-06T14:15:38.289Z,37.35
2022-09-06T14:16:38.188Z,37.20
2022-09-06T14:17:38.133Z,36.32
2022-09-06T14:18:38.077Z,36.03
2022-09-06T14:19:38.021Z,36.40
2022-09-06T14:20:37.965Z,36.17
2022-09-06T14:21:37.911Z,35.95
2022-09-06T14:22:37.852Z,35.77
2022-09-06T14:23:37.795Z,35.90
2022-09-06T14:24:37.736Z,36.29
2022-09-06T14:25:37.685Z,36.22
2022-09-06T14:26:37.625Z,36.03
2022-09-06T14:27:37.568Z,36.49
2022-09-06T14:28:37.512Z,36.69
2022-09-06T14:29:37.457Z,36.86
2022-09-06T14:30:37.467Z,36.85
2022-09-06T14:31:37.342Z,36.45
2022-09-06T14:32:37.286Z,36.30
2022-09-06T14:33:37.232Z,36.41
2022-09-06T14:34:37.174Z,36.66
2022-09-06T14:35:37.119Z,36.32
2022-09-06T14:36:37.061Z,36.26
2022-09-06T14:37:37.019Z,36.42
2022-09-06T14:38:36.947Z,35.70
2022-09-06T14:39:36.987Z,35.79
2022-09-06T14:40:39.454Z,35.82
2022-09-06T14:41:36.779Z,35.72
2022-09-06T14:42:36.720Z,36.00
2022-09-06T14:43:36.664Z,35.68
2022-09-06T14:44:36.605Z,35.35
2022-09-06T14:45:36.552Z,35.69
2022-09-06T14:46:36.599Z,36.02
2022-09-06T14:47:36.436Z,35.91
2022-09-06T14:48:39.168Z,35.95
2022-09-06T14:49:36.323Z,36.00
2022-09-06T14:50:36.264Z,36.22
2022-09-06T14:52:36.395Z,36.06
2022-09-06T14:53:40.709Z,35.72
2022-09-06T14:54:36.076Z,35.51
2022-09-06T14:56:37.482Z,35.53
2022-09-06T14:57:35.863Z,35.84
2022-09-06T14:58:35.805Z,35.98
2022-09-06T14:59:35.751Z,36.30
2022-09-06T15:00:35.690Z,36.60
2022-09-06T15:01:38.351Z,36.81
2022-09-06T15:02:35.677Z,36.81
2022-09-06T15:03:35.519Z,36.45
2022-09-06T15:04:35.465Z,36.20
2022-09-06T15:05:35.404Z,36.34
2022-09-06T15:06:35.347Z,36.42
2022-09-06T15:07:35.288Z,36.27
2022-09-06T15:08:35.234Z,36.23
2022-09-06T15:09:35.176Z,36.06
2022-09-06T15:10:35.120Z,35.63
2022-09-06T15:11:35.060Z,35.97
2022-09-06T15:12:35.003Z,36.06
2022-09-06T15:13:34.944Z,35.63
2022-09-06T15:14:34.889Z,35.66
2022-09-06T15:15:34.932Z,35.47
2022-09-06T15:16:34.774Z,35.63
2022-09-06T15:17:34.751Z,35.79
2022-09-06T15:18:34.700Z,35.90
2022-09-06T15:20:34.678Z,36.07
2022-09-06T15:21:34.520Z,36.18
2022-09-06T15:23:34.408Z,36.03
2022-09-06T15:25:34.405Z,36.04
2022-09-06T15:27:21.702Z,35.50
2022-09-06T15:28:21.642Z,35.63
2022-09-06T15:29:21.586Z,35.55
2022-09-06T15:30:21.527Z,35.94
2022-09-06T15:31:21.720Z,36.20
2022-09-06T15:32:21.411Z,36.41
2022-09-06T15:33:21.353Z,35.87
2022-09-06T15:34:21.546Z,35.73
2022-09-06T15:35:21.239Z,35.58
2022-09-06T15:36:22.593Z,35.76
2022-09-06T15:37:21.121Z,35.69
2022-09-06T15:38:21.104Z,36.03
2022-09-06T15:39:21.004Z,35.17
2022-09-06T15:40:21.551Z,34.66
2022-09-06T15:41:23.772Z,34.75
2022-09-06T15:42:21.030Z,35.20
2022-09-06T15:43:20.778Z,35.54
2022-09-06T15:44:20.713Z,35.72
2022-09-06T15:45:20.651Z,35.43
2022-09-06T15:46:20.652Z,35.72
2022-09-06T15:47:20.533Z,36.04
2022-09-06T15:48:20.476Z,36.51
2022-09-06T15:49:25.595Z,36.73
2022-09-06T15:50:40.568Z,36.45
2022-09-06T15:51:20.300Z,36.55
2022-09-06T15:52:20.240Z,36.69
2022-09-06T15:53:20.179Z,36.91
2022-09-06T15:54:20.121Z,35.84
2022-09-06T15:55:20.061Z,35.16
2022-09-06T15:56:20.003Z,34.95
2022-09-06T15:57:19.941Z,35.02
2022-09-06T15:58:19.884Z,34.66
2022-09-06T15:59:19.824Z,34.49
2022-09-06T16:00:19.797Z,34.72
2022-09-06T16:01:19.761Z,34.87
2022-09-06T16:02:19.710Z,34.64
2022-09-06T16:03:19.583Z,34.77
2022-09-06T16:04:19.566Z,34.67
2022-09-06T16:05:19.621Z,34.86
2022-09-06T16:07:19.347Z,34.73
2022-09-06T16:08:19.587Z,34.87
2022-09-06T16:09:19.226Z,34.63
2022-09-06T16:10:19.170Z,34.19
2022-09-06T16:11:19.106Z,34.07
2022-09-06T16:12:19.045Z,33.60
2022-09-06T16:13:18.985Z,33.24
2022-09-06T16:14:18.926Z,32.80
2022-09-06T16:15:18.864Z,32.39
2022-09-06T16:16:18.872Z,32.16
2022-09-06T16:18:18.681Z,31.79
2022-09-06T16:19:18.619Z,31.53
2022-09-06T16:20:18.555Z,31.41
2022-09-06T16:21:18.492Z,31.30
2022-09-06T16:22:18.428Z,31.15
2022-09-06T16:24:10.869Z,31.15
2022-09-06T16:25:12.123Z,31.09
2022-09-06T16:26:10.744Z,30.92
2022-09-06T16:27:10.690Z,30.96
2022-09-06T16:28:10.614Z,30.96
2022-09-06T16:29:10.550Z,30.92
2022-09-06T16:30:10.485Z,31.01
2022-09-06T16:32:10.356Z,31.05
2022-09-06T16:33:10.391Z,30.97
2022-09-06T16:34:10.228Z,30.93
2022-09-06T16:35:10.162Z,30.75
2022-09-06T16:36:10.097Z,30.70
2022-09-06T16:37:10.030Z,30.67
2022-09-06T16:38:09.965Z,30.71
2022-09-06T16:39:09.900Z,30.77
2022-09-06T16:40:09.917Z,30.78
2022-09-06T16:41:09.768Z,30.68
2022-09-06T16:42:09.701Z,30.64
2022-09-06T16:43:09.637Z,30.65
2022-09-06T16:44:09.572Z,30.67
2022-09-06T16:46:09.480Z,30.64
2022-09-06T16:47:11.695Z,30.60
2022-09-06T16:48:09.304Z,30.59
2022-09-06T16:49:09.238Z,30.52
2022-09-06T16:50:09.173Z,30.48
2022-09-06T16:51:09.147Z,30.43
2022-09-06T16:52:09.039Z,30.32
2022-09-06T16:53:08.973Z,30.48
2022-09-06T16:54:08.906Z,30.40
2022-09-06T16:55:08.837Z,30.40
2022-09-06T16:56:08.771Z,30.32
2022-09-06T16:57:08.703Z,30.22
2022-09-06T16:58:08.639Z,30.11
2022-09-06T16:59:08.572Z,30.11
2022-09-06T17:00:08.505Z,30.10